sensor_id;sensor_type;location;lat;lon;timestamp;temperature;humidity
1888;DHT22;944;51.574;6.980;2023-07-20T00:01:01;17.10;99.90
1888;DHT22;944;51.574;6.980;2023-07-20T00:03:28;17.10;99.90
1888;DHT22;944;51.574;6.980;2023-07-20T00:05:55;17.20;99.90
1888;DHT22;944;51.574;6.980;2023-07-20T00:08:23;17.20;99.90
1888;DHT22;944;51.574;6.980;2023-07-20T00:10:50;17.20;99.90
1888;DHT22;944;51.574;6.980;2023-07-20T00:13:17;17.20;99.90
1888;DHT22;944;51.574;6.980;2023-07-20T00:15:46;17.20;99.90
1888;DHT22;944;51.574;6.980;2023-07-20T00:18:14;17.20;99.90
1888;DHT22;944;51.574;6.980;2023-07-20T00:20:41;17.10;99.90
1888;DHT22;944;51.574;6.980;2023-07-20T00:23:08;17.10;99.90
1888;DHT22;944;51.574;6.980;2023-07-20T00:25:36;17.10;99.90
1888;DHT22;944;51.574;6.980;2023-07-20T00:28:03;17.10;99.90
1888;DHT22;944;51.574;6.980;2023-07-20T00:30:30;17.10;99.90
1888;DHT22;944;51.574;6.980;2023-07-20T00:32:57;17.10;99.90
1888;DHT22;944;51.574;6.980;2023-07-20T00:35:25;17.10;99.90
1888;DHT22;944;51.574;6.980;2023-07-20T00:37:52;17.10;99.90
1888;DHT22;944;51.574;6.980;2023-07-20T00:40:19;17.20;99.90
1888;DHT22;944;51.574;6.980;2023-07-20T00:42:47;17.10;99.90
1888;DHT22;944;51.574;6.980;2023-07-20T00:45:14;17.10;99.90
1888;DHT22;944;51.574;6.980;2023-07-20T00:47:42;17.20;99.90
1888;DHT22;944;51.574;6.980;2023-07-20T00:50:09;17.20;99.90
1888;DHT22;944;51.574;6.980;2023-07-20T00:52:37;17.20;99.90
1888;DHT22;944;51.574;6.980;2023-07-20T00:55:07;17.20;99.90
1888;DHT22;944;51.574;6.980;2023-07-20T00:57:34;17.10;99.90
1888;DHT22;944;51.574;6.980;2023-07-20T01:00:04;17.10;99.90
1888;DHT22;944;51.574;6.980;2023-07-20T01:02:33;16.90;99.90
1888;DHT22;944;51.574;6.980;2023-07-20T01:05:00;16.90;99.90
1888;DHT22;944;51.574;6.980;2023-07-20T01:07:32;16.90;99.90
1888;DHT22;944;51.574;6.980;2023-07-20T01:10:10;16.90;99.90
1888;DHT22;944;51.574;6.980;2023-07-20T01:12:42;16.90;99.90
1888;DHT22;944;51.574;6.980;2023-07-20T01:15:14;16.90;99.90
1888;DHT22;944;51.574;6.980;2023-07-20T01:17:41;16.80;99.90
1888;DHT22;944;51.574;6.980;2023-07-20T01:20:12;16.80;99.90
1888;DHT22;944;51.574;6.980;2023-07-20T01:22:52;16.70;99.90
1888;DHT22;944;51.574;6.980;2023-07-20T01:25:51;16.60;99.90
1888;DHT22;944;51.574;6.980;2023-07-20T01:28:46;16.50;99.90
1888;DHT22;944;51.574;6.980;2023-07-20T01:31:24;16.60;99.90
1888;DHT22;944;51.574;6.980;2023-07-20T01:33:54;16.40;1.00
1888;DHT22;944;51.574;6.980;2023-07-20T01:36:24;16.40;1.00
1888;DHT22;944;51.574;6.980;2023-07-20T01:38:52;16.40;1.00
1888;DHT22;944;51.574;6.980;2023-07-20T01:41:20;16.40;1.00
1888;DHT22;944;51.574;6.980;2023-07-20T01:43:47;16.40;1.00
1888;DHT22;944;51.574;6.980;2023-07-20T01:46:15;16.40;1.00
1888;DHT22;944;51.574;6.980;2023-07-20T01:48:43;16.40;44.80
1888;DHT22;944;51.574;6.980;2023-07-20T01:51:10;16.40;98.90
1888;DHT22;944;51.574;6.980;2023-07-20T01:53:37;16.50;99.90
1888;DHT22;944;51.574;6.980;2023-07-20T01:56:04;16.60;99.90
1888;DHT22;944;51.574;6.980;2023-07-20T01:58:31;16.60;94.60
1888;DHT22;944;51.574;6.980;2023-07-20T02:00:58;16.70;1.00
1888;DHT22;944;51.574;6.980;2023-07-20T02:03:25;16.80;1.00
1888;DHT22;944;51.574;6.980;2023-07-20T02:05:53;16.80;1.00
1888;DHT22;944;51.574;6.980;2023-07-20T02:08:20;16.70;99.90
1888;DHT22;944;51.574;6.980;2023-07-20T02:10:47;16.60;1.00
1888;DHT22;944;51.574;6.980;2023-07-20T02:13:14;16.50;99.90
1888;DHT22;944;51.574;6.980;2023-07-20T02:15:42;16.50;99.90
1888;DHT22;944;51.574;6.980;2023-07-20T02:18:09;16.40;99.90
1888;DHT22;944;51.574;6.980;2023-07-20T02:20:36;16.30;1.00
1888;DHT22;944;51.574;6.980;2023-07-20T02:23:04;16.20;1.00
1888;DHT22;944;51.574;6.980;2023-07-20T02:25:31;16.20;99.90
1888;DHT22;944;51.574;6.980;2023-07-20T02:27:58;16.20;99.90
1888;DHT22;944;51.574;6.980;2023-07-20T02:30:25;16.10;99.90
1888;DHT22;944;51.574;6.980;2023-07-20T02:32:54;16.00;99.90
1888;DHT22;944;51.574;6.980;2023-07-20T02:35:24;15.90;99.90
1888;DHT22;944;51.574;6.980;2023-07-20T02:37:51;15.90;99.90
1888;DHT22;944;51.574;6.980;2023-07-20T02:40:20;15.80;99.90
1888;DHT22;944;51.574;6.980;2023-07-20T02:42:47;15.70;99.90
1888;DHT22;944;51.574;6.980;2023-07-20T02:45:14;15.70;99.90
1888;DHT22;944;51.574;6.980;2023-07-20T02:47:41;15.70;99.90
1888;DHT22;944;51.574;6.980;2023-07-20T02:50:09;15.70;99.90
1888;DHT22;944;51.574;6.980;2023-07-20T02:52:36;15.60;99.90
1888;DHT22;944;51.574;6.980;2023-07-20T02:55:04;15.60;99.90
1888;DHT22;944;51.574;6.980;2023-07-20T02:57:32;15.60;99.90
1888;DHT22;944;51.574;6.980;2023-07-20T02:59:59;15.60;99.90
1888;DHT22;944;51.574;6.980;2023-07-20T03:02:26;15.60;99.90
1888;DHT22;944;51.574;6.980;2023-07-20T03:04:56;15.60;99.90
1888;DHT22;944;51.574;6.980;2023-07-20T03:07:27;15.60;99.90
1888;DHT22;944;51.574;6.980;2023-07-20T03:09:54;15.70;99.90
1888;DHT22;944;51.574;6.980;2023-07-20T03:12:21;15.70;99.90
1888;DHT22;944;51.574;6.980;2023-07-20T03:14:51;15.60;99.90
1888;DHT22;944;51.574;6.980;2023-07-20T03:17:18;15.60;99.90
1888;DHT22;944;51.574;6.980;2023-07-20T03:19:46;15.60;99.90
1888;DHT22;944;51.574;6.980;2023-07-20T03:22:13;15.70;99.90
1888;DHT22;944;51.574;6.980;2023-07-20T03:24:40;15.50;99.90
1888;DHT22;944;51.574;6.980;2023-07-20T03:27:07;15.60;99.90
1888;DHT22;944;51.574;6.980;2023-07-20T03:29:33;15.50;99.90
1888;DHT22;944;51.574;6.980;2023-07-20T03:32:02;15.50;99.90
1888;DHT22;944;51.574;6.980;2023-07-20T03:34:29;15.50;99.90
1888;DHT22;944;51.574;6.980;2023-07-20T03:36:56;15.50;99.90
1888;DHT22;944;51.574;6.980;2023-07-20T03:39:26;15.60;99.90
1888;DHT22;944;51.574;6.980;2023-07-20T03:41:53;15.50;99.90
1888;DHT22;944;51.574;6.980;2023-07-20T03:44:20;15.50;99.90
1888;DHT22;944;51.574;6.980;2023-07-20T03:46:47;15.40;99.90
1888;DHT22;944;51.574;6.980;2023-07-20T03:49:15;15.40;99.90
1888;DHT22;944;51.574;6.980;2023-07-20T03:51:45;15.40;99.90
1888;DHT22;944;51.574;6.980;2023-07-20T03:54:12;15.40;99.90
1888;DHT22;944;51.574;6.980;2023-07-20T03:56:39;15.30;99.90
1888;DHT22;944;51.574;6.980;2023-07-20T03:59:06;15.30;99.90
1888;DHT22;944;51.574;6.980;2023-07-20T04:01:33;15.40;99.90
1888;DHT22;944;51.574;6.980;2023-07-20T04:04:04;15.40;99.90
1888;DHT22;944;51.574;6.980;2023-07-20T04:06:34;15.40;99.90
1888;DHT22;944;51.574;6.980;2023-07-20T04:09:02;15.30;99.90
1888;DHT22;944;51.574;6.980;2023-07-20T04:11:30;15.30;99.90
1888;DHT22;944;51.574;6.980;2023-07-20T04:13:57;15.30;99.90
1888;DHT22;944;51.574;6.980;2023-07-20T04:16:24;15.30;99.90
1888;DHT22;944;51.574;6.980;2023-07-20T04:18:51;15.20;99.90
1888;DHT22;944;51.574;6.980;2023-07-20T04:21:18;15.20;99.90
1888;DHT22;944;51.574;6.980;2023-07-20T04:23:47;15.20;99.90
1888;DHT22;944;51.574;6.980;2023-07-20T04:26:14;15.20;99.90
1888;DHT22;944;51.574;6.980;2023-07-20T04:28:41;15.20;99.90
1888;DHT22;944;51.574;6.980;2023-07-20T04:31:12;15.20;99.90
1888;DHT22;944;51.574;6.980;2023-07-20T04:33:39;15.20;99.90
1888;DHT22;944;51.574;6.980;2023-07-20T04:36:07;15.20;99.90
1888;DHT22;944;51.574;6.980;2023-07-20T04:45:17;15.30;99.90
1888;DHT22;944;51.574;6.980;2023-07-20T04:48:28;15.20;99.90
1888;DHT22;944;51.574;6.980;2023-07-20T04:51:06;15.30;99.90
1888;DHT22;944;51.574;6.980;2023-07-20T04:53:35;15.40;99.90
1888;DHT22;944;51.574;6.980;2023-07-20T04:56:24;15.40;99.90
1888;DHT22;944;51.574;6.980;2023-07-20T05:03:07;15.50;99.90
1888;DHT22;944;51.574;6.980;2023-07-20T05:05:35;15.50;99.90
1888;DHT22;944;51.574;6.980;2023-07-20T05:08:10;15.60;99.90
1888;DHT22;944;51.574;6.980;2023-07-20T05:11:35;15.60;99.90
1888;DHT22;944;51.574;6.980;2023-07-20T05:17:48;15.60;99.90
1888;DHT22;944;51.574;6.980;2023-07-20T05:24:10;15.60;99.90
1888;DHT22;944;51.574;6.980;2023-07-20T05:26:38;15.80;99.90
1888;DHT22;944;51.574;6.980;2023-07-20T05:29:05;15.60;99.90
1888;DHT22;944;51.574;6.980;2023-07-20T05:34:55;15.70;99.90
1888;DHT22;944;51.574;6.980;2023-07-20T05:37:23;15.70;99.90
1888;DHT22;944;51.574;6.980;2023-07-20T05:43:39;15.60;99.90
1888;DHT22;944;51.574;6.980;2023-07-20T05:46:07;15.70;99.90
1888;DHT22;944;51.574;6.980;2023-07-20T05:48:35;15.70;99.90
1888;DHT22;944;51.574;6.980;2023-07-20T05:54:45;15.90;99.90
1888;DHT22;944;51.574;6.980;2023-07-20T06:01:11;16.70;99.90
1888;DHT22;944;51.574;6.980;2023-07-20T06:03:39;17.00;99.90
1888;DHT22;944;51.574;6.980;2023-07-20T06:06:24;17.30;99.90
1888;DHT22;944;51.574;6.980;2023-07-20T06:09:12;17.90;99.90
1888;DHT22;944;51.574;6.980;2023-07-20T06:15:28;19.00;1.00
1888;DHT22;944;51.574;6.980;2023-07-20T06:18:43;19.00;99.90
1888;DHT22;944;51.574;6.980;2023-07-20T06:21:37;19.00;99.90
1888;DHT22;944;51.574;6.980;2023-07-20T06:28:17;20.10;99.90
1888;DHT22;944;51.574;6.980;2023-07-20T06:31:16;20.30;99.90
1888;DHT22;944;51.574;6.980;2023-07-20T06:37:41;20.40;99.90
1888;DHT22;944;51.574;6.980;2023-07-20T06:40:36;20.30;99.90
1888;DHT22;944;51.574;6.980;2023-07-20T06:43:10;20.20;99.90
1888;DHT22;944;51.574;6.980;2023-07-20T06:46:15;20.60;99.90
1888;DHT22;944;51.574;6.980;2023-07-20T06:49:19;20.80;99.90
1888;DHT22;944;51.574;6.980;2023-07-20T06:52:21;20.30;99.90
1888;DHT22;944;51.574;6.980;2023-07-20T06:55:04;20.80;99.90
1888;DHT22;944;51.574;6.980;2023-07-20T06:57:42;21.10;99.90
1888;DHT22;944;51.574;6.980;2023-07-20T07:00:20;21.00;99.90
1888;DHT22;944;51.574;6.980;2023-07-20T07:02:47;21.40;95.80
1888;DHT22;944;51.574;6.980;2023-07-20T07:05:14;21.60;85.70
1888;DHT22;944;51.574;6.980;2023-07-20T07:07:41;21.40;82.70
1888;DHT22;944;51.574;6.980;2023-07-20T07:10:10;21.20;92.50
1888;DHT22;944;51.574;6.980;2023-07-20T07:12:36;21.20;93.70
1888;DHT22;944;51.574;6.980;2023-07-20T07:15:04;21.00;94.10
1888;DHT22;944;51.574;6.980;2023-07-20T07:17:35;20.30;99.10
1888;DHT22;944;51.574;6.980;2023-07-20T07:20:02;19.70;99.90
1888;DHT22;944;51.574;6.980;2023-07-20T07:22:30;19.50;99.90
1888;DHT22;944;51.574;6.980;2023-07-20T07:24:57;19.40;99.90
1888;DHT22;944;51.574;6.980;2023-07-20T07:27:25;19.50;99.90
1888;DHT22;944;51.574;6.980;2023-07-20T07:29:52;19.80;99.90
1888;DHT22;944;51.574;6.980;2023-07-20T07:32:20;20.00;99.90
1888;DHT22;944;51.574;6.980;2023-07-20T07:34:49;20.40;97.80
1888;DHT22;944;51.574;6.980;2023-07-20T07:37:16;20.30;88.30
1888;DHT22;944;51.574;6.980;2023-07-20T07:39:45;20.50;88.40
1888;DHT22;944;51.574;6.980;2023-07-20T07:42:12;20.60;87.00
1888;DHT22;944;51.574;6.980;2023-07-20T07:44:40;20.80;77.70
1888;DHT22;944;51.574;6.980;2023-07-20T07:47:07;20.70;79.90
1888;DHT22;944;51.574;6.980;2023-07-20T07:49:40;21.40;75.20
1888;DHT22;944;51.574;6.980;2023-07-20T07:52:11;21.90;72.70
1888;DHT22;944;51.574;6.980;2023-07-20T07:54:39;22.00;70.20
1888;DHT22;944;51.574;6.980;2023-07-20T07:57:06;22.20;71.50
1888;DHT22;944;51.574;6.980;2023-07-20T07:59:36;21.70;63.50
1888;DHT22;944;51.574;6.980;2023-07-20T08:02:05;21.00;65.90
1888;DHT22;944;51.574;6.980;2023-07-20T08:04:38;21.10;91.00
1888;DHT22;944;51.574;6.980;2023-07-20T08:11:09;20.80;65.80
1888;DHT22;944;51.574;6.980;2023-07-20T08:21:00;21.30;59.60
1888;DHT22;944;51.574;6.980;2023-07-20T08:23:28;21.50;61.20
1888;DHT22;944;51.574;6.980;2023-07-20T08:25:55;21.70;60.80
1888;DHT22;944;51.574;6.980;2023-07-20T08:28:22;21.30;80.60
1888;DHT22;944;51.574;6.980;2023-07-20T08:30:49;20.70;58.90
1888;DHT22;944;51.574;6.980;2023-07-20T08:33:17;20.20;59.90
1888;DHT22;944;51.574;6.980;2023-07-20T08:35:46;20.10;57.50
1888;DHT22;944;51.574;6.980;2023-07-20T08:41:23;20.60;61.20
1888;DHT22;944;51.574;6.980;2023-07-20T08:43:51;21.00;62.20
1888;DHT22;944;51.574;6.980;2023-07-20T08:46:22;21.20;59.90
1888;DHT22;944;51.574;6.980;2023-07-20T08:48:50;21.10;59.60
1888;DHT22;944;51.574;6.980;2023-07-20T08:51:19;21.30;57.40
1888;DHT22;944;51.574;6.980;2023-07-20T08:53:48;21.20;55.20
1888;DHT22;944;51.574;6.980;2023-07-20T08:56:18;20.60;52.80
1888;DHT22;944;51.574;6.980;2023-07-20T08:58:46;20.40;52.20
1888;DHT22;944;51.574;6.980;2023-07-20T09:01:14;20.50;52.10
1888;DHT22;944;51.574;6.980;2023-07-20T09:03:42;20.80;50.00
1888;DHT22;944;51.574;6.980;2023-07-20T09:06:09;20.90;47.90
1888;DHT22;944;51.574;6.980;2023-07-20T09:08:39;21.50;48.90
1888;DHT22;944;51.574;6.980;2023-07-20T09:11:11;22.10;42.60
1888;DHT22;944;51.574;6.980;2023-07-20T09:13:38;22.00;59.50
1888;DHT22;944;51.574;6.980;2023-07-20T09:16:05;22.10;37.40
1888;DHT22;944;51.574;6.980;2023-07-20T09:18:33;22.40;37.70
1888;DHT22;944;51.574;6.980;2023-07-20T09:21:02;22.50;34.80
1888;DHT22;944;51.574;6.980;2023-07-20T09:23:31;23.10;33.40
1888;DHT22;944;51.574;6.980;2023-07-20T09:26:01;23.40;30.80
1888;DHT22;944;51.574;6.980;2023-07-20T09:28:41;23.30;28.50
1888;DHT22;944;51.574;6.980;2023-07-20T09:35:18;23.10;29.20
1888;DHT22;944;51.574;6.980;2023-07-20T09:45:22;22.10;27.10
1888;DHT22;944;51.574;6.980;2023-07-20T09:48:39;22.50;26.10
1888;DHT22;944;51.574;6.980;2023-07-20T09:52:00;22.80;25.60
1888;DHT22;944;51.574;6.980;2023-07-20T10:51:09;21.60;16.20
1888;DHT22;944;51.574;6.980;2023-07-20T10:53:38;21.60;15.60
1888;DHT22;944;51.574;6.980;2023-07-20T10:56:11;21.40;18.10
1888;DHT22;944;51.574;6.980;2023-07-20T10:58:42;21.70;16.00
1888;DHT22;944;51.574;6.980;2023-07-20T11:01:13;21.80;16.00
1888;DHT22;944;51.574;6.980;2023-07-20T11:03:41;21.70;14.80
1888;DHT22;944;51.574;6.980;2023-07-20T11:06:32;21.70;14.70
1888;DHT22;944;51.574;6.980;2023-07-20T11:12:41;22.10;15.50
1888;DHT22;944;51.574;6.980;2023-07-20T11:15:08;22.00;12.70
1888;DHT22;944;51.574;6.980;2023-07-20T11:17:41;22.10;12.80
1888;DHT22;944;51.574;6.980;2023-07-20T11:20:14;22.00;11.80
1888;DHT22;944;51.574;6.980;2023-07-20T11:22:44;22.10;26.20
1888;DHT22;944;51.574;6.980;2023-07-20T11:25:17;22.30;11.30
1888;DHT22;944;51.574;6.980;2023-07-20T11:27:45;22.60;10.90
1888;DHT22;944;51.574;6.980;2023-07-20T11:30:17;22.80;10.00
1888;DHT22;944;51.574;6.980;2023-07-20T11:32:48;22.20;6.80
1888;DHT22;944;51.574;6.980;2023-07-20T11:35:15;21.90;8.70
1888;DHT22;944;51.574;6.980;2023-07-20T11:37:42;21.70;7.10
1888;DHT22;944;51.574;6.980;2023-07-20T11:40:11;21.70;9.80
1888;DHT22;944;51.574;6.980;2023-07-20T11:42:38;21.50;10.50
1888;DHT22;944;51.574;6.980;2023-07-20T11:45:09;21.60;10.90
1888;DHT22;944;51.574;6.980;2023-07-20T11:47:40;21.60;10.60
1888;DHT22;944;51.574;6.980;2023-07-20T11:50:11;22.10;11.40
1888;DHT22;944;51.574;6.980;2023-07-20T11:55:57;22.70;9.00
1888;DHT22;944;51.574;6.980;2023-07-20T11:58:35;22.50;7.30
1888;DHT22;944;51.574;6.980;2023-07-20T12:01:34;22.20;6.00
1888;DHT22;944;51.574;6.980;2023-07-20T12:04:20;22.30;7.20
1888;DHT22;944;51.574;6.980;2023-07-20T12:10:59;22.20;7.00
1888;DHT22;944;51.574;6.980;2023-07-20T12:22:34;22.70;3.70
1888;DHT22;944;51.574;6.980;2023-07-20T12:32:08;22.10;2.80
1888;DHT22;944;51.574;6.980;2023-07-20T12:34:36;22.10;3.30
1888;DHT22;944;51.574;6.980;2023-07-20T12:37:07;22.10;2.60
1888;DHT22;944;51.574;6.980;2023-07-20T12:43:54;21.90;2.30
1888;DHT22;944;51.574;6.980;2023-07-20T12:46:29;21.80;1.40
1888;DHT22;944;51.574;6.980;2023-07-20T12:51:51;22.00;2.00
1888;DHT22;944;51.574;6.980;2023-07-20T12:57:54;22.40;1.00
1888;DHT22;944;51.574;6.980;2023-07-20T13:00:22;22.80;1.10
1888;DHT22;944;51.574;6.980;2023-07-20T13:03:04;22.80;1.50
1888;DHT22;944;51.574;6.980;2023-07-20T13:05:32;22.90;1.00
1888;DHT22;944;51.574;6.980;2023-07-20T13:07:59;22.80;1.00
1888;DHT22;944;51.574;6.980;2023-07-20T13:10:26;22.80;1.00
1888;DHT22;944;51.574;6.980;2023-07-20T13:12:53;22.60;1.00
1888;DHT22;944;51.574;6.980;2023-07-20T13:15:20;22.50;1.00
1888;DHT22;944;51.574;6.980;2023-07-20T13:17:47;22.30;1.00
1888;DHT22;944;51.574;6.980;2023-07-20T13:20:17;22.20;1.00
1888;DHT22;944;51.574;6.980;2023-07-20T13:22:44;22.60;1.00
1888;DHT22;944;51.574;6.980;2023-07-20T13:25:11;22.90;1.00
1888;DHT22;944;51.574;6.980;2023-07-20T13:27:38;23.20;1.00
1888;DHT22;944;51.574;6.980;2023-07-20T13:30:06;23.30;1.00
1888;DHT22;944;51.574;6.980;2023-07-20T13:32:35;23.40;1.00
1888;DHT22;944;51.574;6.980;2023-07-20T13:35:03;23.10;1.00
1888;DHT22;944;51.574;6.980;2023-07-20T13:37:32;23.10;1.00
1888;DHT22;944;51.574;6.980;2023-07-20T13:43:40;23.30;1.00
1888;DHT22;944;51.574;6.980;2023-07-20T13:46:07;23.40;2.50
1888;DHT22;944;51.574;6.980;2023-07-20T13:48:34;23.50;1.00
1888;DHT22;944;51.574;6.980;2023-07-20T13:51:01;23.60;1.00
1888;DHT22;944;51.574;6.980;2023-07-20T13:53:31;23.70;1.00
1888;DHT22;944;51.574;6.980;2023-07-20T13:56:00;23.80;1.00
1888;DHT22;944;51.574;6.980;2023-07-20T13:58:30;23.90;1.00
1888;DHT22;944;51.574;6.980;2023-07-20T14:00:56;23.90;1.00
1888;DHT22;944;51.574;6.980;2023-07-20T14:03:24;23.90;1.00
1888;DHT22;944;51.574;6.980;2023-07-20T14:05:50;23.60;1.00
1888;DHT22;944;51.574;6.980;2023-07-20T14:08:17;23.60;1.00
1888;DHT22;944;51.574;6.980;2023-07-20T14:10:46;23.50;1.00
1888;DHT22;944;51.574;6.980;2023-07-20T14:13:13;23.60;1.00
1888;DHT22;944;51.574;6.980;2023-07-20T14:15:40;23.20;1.00
1888;DHT22;944;51.574;6.980;2023-07-20T14:18:07;23.40;1.00
1888;DHT22;944;51.574;6.980;2023-07-20T14:20:37;23.20;1.00
1888;DHT22;944;51.574;6.980;2023-07-20T14:23:14;23.00;1.00
1888;DHT22;944;51.574;6.980;2023-07-20T14:25:42;23.20;1.00
1888;DHT22;944;51.574;6.980;2023-07-20T14:28:11;23.10;1.00
1888;DHT22;944;51.574;6.980;2023-07-20T14:30:38;23.10;1.00
1888;DHT22;944;51.574;6.980;2023-07-20T14:33:05;23.00;1.00
1888;DHT22;944;51.574;6.980;2023-07-20T14:39:13;22.90;1.00
1888;DHT22;944;51.574;6.980;2023-07-20T14:41:40;23.00;1.00
1888;DHT22;944;51.574;6.980;2023-07-20T14:44:08;22.90;1.00
1888;DHT22;944;51.574;6.980;2023-07-20T14:46:36;23.00;1.00
1888;DHT22;944;51.574;6.980;2023-07-20T14:49:03;23.20;1.00
1888;DHT22;944;51.574;6.980;2023-07-20T14:51:30;23.30;1.00
1888;DHT22;944;51.574;6.980;2023-07-20T14:57:39;23.40;1.00
1888;DHT22;944;51.574;6.980;2023-07-20T15:00:09;23.60;1.00
1888;DHT22;944;51.574;6.980;2023-07-20T15:02:37;23.60;1.00
1888;DHT22;944;51.574;6.980;2023-07-20T15:05:07;23.60;1.00
1888;DHT22;944;51.574;6.980;2023-07-20T15:07:35;23.70;1.00
1888;DHT22;944;51.574;6.980;2023-07-20T15:10:07;23.50;1.00
1888;DHT22;944;51.574;6.980;2023-07-20T15:12:36;23.50;1.00
1888;DHT22;944;51.574;6.980;2023-07-20T15:15:06;23.20;1.00
1888;DHT22;944;51.574;6.980;2023-07-20T15:17:35;23.20;1.00
1888;DHT22;944;51.574;6.980;2023-07-20T15:20:04;23.20;1.00
1888;DHT22;944;51.574;6.980;2023-07-20T15:22:33;23.10;1.00
1888;DHT22;944;51.574;6.980;2023-07-20T15:25:02;23.10;1.00
1888;DHT22;944;51.574;6.980;2023-07-20T15:27:29;23.10;1.00
1888;DHT22;944;51.574;6.980;2023-07-20T15:29:56;22.90;1.00
1888;DHT22;944;51.574;6.980;2023-07-20T15:32:25;22.90;1.00
1888;DHT22;944;51.574;6.980;2023-07-20T15:34:52;23.10;1.00
1888;DHT22;944;51.574;6.980;2023-07-20T15:37:19;22.90;1.00
1888;DHT22;944;51.574;6.980;2023-07-20T15:39:48;23.20;1.00
1888;DHT22;944;51.574;6.980;2023-07-20T15:42:15;23.20;1.00
1888;DHT22;944;51.574;6.980;2023-07-20T15:44:43;23.20;1.00
1888;DHT22;944;51.574;6.980;2023-07-20T15:47:10;23.10;1.00
1888;DHT22;944;51.574;6.980;2023-07-20T15:49:38;23.00;1.00
1888;DHT22;944;51.574;6.980;2023-07-20T15:52:06;22.90;1.00
1888;DHT22;944;51.574;6.980;2023-07-20T15:54:36;22.90;1.00
1888;DHT22;944;51.574;6.980;2023-07-20T15:57:04;23.00;1.00
1888;DHT22;944;51.574;6.980;2023-07-20T15:59:31;23.00;1.00
1888;DHT22;944;51.574;6.980;2023-07-20T16:01:58;23.20;1.00
1888;DHT22;944;51.574;6.980;2023-07-20T16:04:25;23.40;1.00
1888;DHT22;944;51.574;6.980;2023-07-20T16:06:59;23.30;1.00
1888;DHT22;944;51.574;6.980;2023-07-20T16:09:26;23.40;1.00
1888;DHT22;944;51.574;6.980;2023-07-20T16:11:53;23.20;1.00
1888;DHT22;944;51.574;6.980;2023-07-20T16:14:20;23.00;1.00
1888;DHT22;944;51.574;6.980;2023-07-20T16:16:48;22.80;1.00
1888;DHT22;944;51.574;6.980;2023-07-20T16:19:15;22.60;1.00
1888;DHT22;944;51.574;6.980;2023-07-20T16:22:00;22.60;1.00
1888;DHT22;944;51.574;6.980;2023-07-20T16:24:27;22.60;1.00
1888;DHT22;944;51.574;6.980;2023-07-20T16:27:10;22.50;1.00
1888;DHT22;944;51.574;6.980;2023-07-20T16:29:56;22.40;1.00
1888;DHT22;944;51.574;6.980;2023-07-20T16:36:17;22.30;1.00
1888;DHT22;944;51.574;6.980;2023-07-20T16:38:46;22.30;1.00
1888;DHT22;944;51.574;6.980;2023-07-20T16:41:13;22.20;1.00
1888;DHT22;944;51.574;6.980;2023-07-20T16:43:43;22.30;1.00
1888;DHT22;944;51.574;6.980;2023-07-20T16:46:10;22.30;1.00
1888;DHT22;944;51.574;6.980;2023-07-20T16:48:39;22.30;1.00
1888;DHT22;944;51.574;6.980;2023-07-20T16:51:12;22.30;1.00
1888;DHT22;944;51.574;6.980;2023-07-20T16:53:42;22.20;1.00
1888;DHT22;944;51.574;6.980;2023-07-20T16:56:16;22.40;1.00
1888;DHT22;944;51.574;6.980;2023-07-20T16:58:43;22.40;1.00
1888;DHT22;944;51.574;6.980;2023-07-20T17:01:10;22.50;1.00
1888;DHT22;944;51.574;6.980;2023-07-20T17:03:37;22.60;2.10
1888;DHT22;944;51.574;6.980;2023-07-20T17:06:06;22.70;1.00
1888;DHT22;944;51.574;6.980;2023-07-20T17:08:36;22.80;1.00
1888;DHT22;944;51.574;6.980;2023-07-20T17:11:08;22.80;1.00
1888;DHT22;944;51.574;6.980;2023-07-20T17:13:38;22.60;1.00
1888;DHT22;944;51.574;6.980;2023-07-20T17:16:05;22.50;1.00
1888;DHT22;944;51.574;6.980;2023-07-20T17:18:34;22.30;1.00
1888;DHT22;944;51.574;6.980;2023-07-20T17:21:05;22.10;1.00
1888;DHT22;944;51.574;6.980;2023-07-20T17:23:35;22.10;1.00
1888;DHT22;944;51.574;6.980;2023-07-20T17:26:05;21.90;1.00
1888;DHT22;944;51.574;6.980;2023-07-20T17:28:38;21.80;1.00
1888;DHT22;944;51.574;6.980;2023-07-20T17:31:05;21.80;2.80
1888;DHT22;944;51.574;6.980;2023-07-20T17:33:35;21.90;1.00
1888;DHT22;944;51.574;6.980;2023-07-20T17:36:23;21.90;1.00
1888;DHT22;944;51.574;6.980;2023-07-20T17:38:50;21.90;1.00
1888;DHT22;944;51.574;6.980;2023-07-20T17:41:17;21.90;1.00
1888;DHT22;944;51.574;6.980;2023-07-20T17:43:48;22.00;2.60
1888;DHT22;944;51.574;6.980;2023-07-20T17:46:15;21.90;1.00
1888;DHT22;944;51.574;6.980;2023-07-20T17:48:42;21.70;1.00
1888;DHT22;944;51.574;6.980;2023-07-20T17:51:09;21.80;1.00
1888;DHT22;944;51.574;6.980;2023-07-20T17:53:36;21.70;1.00
1888;DHT22;944;51.574;6.980;2023-07-20T17:56:04;21.80;1.00
1888;DHT22;944;51.574;6.980;2023-07-20T17:58:31;21.80;1.00
1888;DHT22;944;51.574;6.980;2023-07-20T18:01:00;21.80;1.00
1888;DHT22;944;51.574;6.980;2023-07-20T18:03:27;21.80;1.00
1888;DHT22;944;51.574;6.980;2023-07-20T18:05:54;21.80;1.00
1888;DHT22;944;51.574;6.980;2023-07-20T18:08:22;21.80;1.00
1888;DHT22;944;51.574;6.980;2023-07-20T18:10:50;21.80;1.00
1888;DHT22;944;51.574;6.980;2023-07-20T18:13:17;21.70;4.80
1888;DHT22;944;51.574;6.980;2023-07-20T18:15:44;21.60;4.80
1888;DHT22;944;51.574;6.980;2023-07-20T18:18:13;21.60;1.00
1888;DHT22;944;51.574;6.980;2023-07-20T18:20:40;21.50;1.00
1888;DHT22;944;51.574;6.980;2023-07-20T18:23:10;21.50;1.00
1888;DHT22;944;51.574;6.980;2023-07-20T18:25:41;21.40;1.00
1888;DHT22;944;51.574;6.980;2023-07-20T18:28:08;21.30;1.00
1888;DHT22;944;51.574;6.980;2023-07-20T18:30:35;21.40;1.00
1888;DHT22;944;51.574;6.980;2023-07-20T18:33:02;21.40;1.00
1888;DHT22;944;51.574;6.980;2023-07-20T18:35:31;21.40;1.00
1888;DHT22;944;51.574;6.980;2023-07-20T18:37:59;21.30;1.00
1888;DHT22;944;51.574;6.980;2023-07-20T18:40:31;21.20;1.00
1888;DHT22;944;51.574;6.980;2023-07-20T18:42:59;21.40;1.00
1888;DHT22;944;51.574;6.980;2023-07-20T18:45:29;21.20;1.00
1888;DHT22;944;51.574;6.980;2023-07-20T18:47:56;21.10;1.00
1888;DHT22;944;51.574;6.980;2023-07-20T18:50:23;21.00;1.00
1888;DHT22;944;51.574;6.980;2023-07-20T18:52:52;21.00;1.00
1888;DHT22;944;51.574;6.980;2023-07-20T18:55:26;20.90;1.00
1888;DHT22;944;51.574;6.980;2023-07-20T18:57:54;20.90;1.00
1888;DHT22;944;51.574;6.980;2023-07-20T19:00:24;20.90;1.00
1888;DHT22;944;51.574;6.980;2023-07-20T19:02:51;20.80;1.00
1888;DHT22;944;51.574;6.980;2023-07-20T19:05:28;20.90;1.00
1888;DHT22;944;51.574;6.980;2023-07-20T19:07:57;20.80;1.00
1888;DHT22;944;51.574;6.980;2023-07-20T19:10:27;20.90;1.00
1888;DHT22;944;51.574;6.980;2023-07-20T19:12:55;20.80;1.00
1888;DHT22;944;51.574;6.980;2023-07-20T19:15:25;20.80;1.00
1888;DHT22;944;51.574;6.980;2023-07-20T19:21:33;20.80;1.00
1888;DHT22;944;51.574;6.980;2023-07-20T19:24:02;20.80;1.00
1888;DHT22;944;51.574;6.980;2023-07-20T19:26:29;20.60;1.00
1888;DHT22;944;51.574;6.980;2023-07-20T19:28:56;20.70;1.00
1888;DHT22;944;51.574;6.980;2023-07-20T19:31:23;20.60;1.00
1888;DHT22;944;51.574;6.980;2023-07-20T19:33:55;20.40;1.00
1888;DHT22;944;51.574;6.980;2023-07-20T19:36:22;20.50;1.00
1888;DHT22;944;51.574;6.980;2023-07-20T19:38:49;20.60;1.00
1888;DHT22;944;51.574;6.980;2023-07-20T19:41:17;20.60;1.00
1888;DHT22;944;51.574;6.980;2023-07-20T19:43:44;20.60;1.00
1888;DHT22;944;51.574;6.980;2023-07-20T19:46:13;20.50;1.00
1888;DHT22;944;51.574;6.980;2023-07-20T19:48:42;20.40;1.00